sensor_id;sensor_type;location;lat;lon;timestamp;P1;durP1;ratioP1;P2;durP2;ratioP2
41466;SDS011;27205;53.690;19.948;2023-06-22T00:00:14;14.00;;;12.90;;
41466;SDS011;27205;53.690;19.948;2023-06-22T00:10:41;14.10;;;13.10;;
41466;SDS011;27205;53.690;19.948;2023-06-22T00:15:45;10.00;;;9.30;;
41466;SDS011;27205;53.690;19.948;2023-06-22T00:25:52;15.80;;;14.70;;
41466;SDS011;27205;53.690;19.948;2023-06-22T00:30:56;16.70;;;15.50;;
41466;SDS011;27205;53.690;19.948;2023-06-22T00:41:03;14.60;;;13.60;;
41466;SDS011;27205;53.690;19.948;2023-06-22T00:51:10;15.40;;;14.20;;
41466;SDS011;27205;53.690;19.948;2023-06-22T00:56:14;16.00;;;14.80;;
41466;SDS011;27205;53.690;19.948;2023-06-22T01:01:18;15.20;;;14.20;;
41466;SDS011;27205;53.690;19.948;2023-06-22T01:06:28;14.80;;;13.80;;
41466;SDS011;27205;53.690;19.948;2023-06-22T01:11:42;14.40;;;13.30;;
41466;SDS011;27205;53.690;19.948;2023-06-22T01:16:51;12.50;;;11.70;;
41466;SDS011;27205;53.690;19.948;2023-06-22T01:21:58;12.00;;;11.20;;
41466;SDS011;27205;53.690;19.948;2023-06-22T01:27:09;13.20;;;12.20;;
41466;SDS011;27205;53.690;19.948;2023-06-22T01:32:30;13.10;;;12.10;;
41466;SDS011;27205;53.690;19.948;2023-06-22T01:37:36;14.40;;;13.40;;
41466;SDS011;27205;53.690;19.948;2023-06-22T01:42:40;13.60;;;12.70;;
41466;SDS011;27205;53.690;19.948;2023-06-22T01:47:46;13.60;;;12.60;;
41466;SDS011;27205;53.690;19.948;2023-06-22T01:52:50;15.20;;;14.00;;
41466;SDS011;27205;53.690;19.948;2023-06-22T02:03:14;13.70;;;12.80;;
41466;SDS011;27205;53.690;19.948;2023-06-22T02:08:25;12.00;;;11.20;;
41466;SDS011;27205;53.690;19.948;2023-06-22T02:13:33;11.80;;;11.00;;
41466;SDS011;27205;53.690;19.948;2023-06-22T02:18:37;10.00;;;9.40;;
41466;SDS011;27205;53.690;19.948;2023-06-22T02:23:43;10.60;;;9.90;;
41466;SDS011;27205;53.690;19.948;2023-06-22T02:28:46;10.70;;;10.00;;
41466;SDS011;27205;53.690;19.948;2023-06-22T02:38:54;11.80;;;10.90;;
41466;SDS011;27205;53.690;19.948;2023-06-22T02:44:00;10.40;;;9.80;;
41466;SDS011;27205;53.690;19.948;2023-06-22T02:49:03;10.60;;;9.90;;
41466;SDS011;27205;53.690;19.948;2023-06-22T02:59:10;11.90;;;11.10;;
41466;SDS011;27205;53.690;19.948;2023-06-22T03:14:22;10.00;;;9.30;;
41466;SDS011;27205;53.690;19.948;2023-06-22T03:19:25;10.00;;;9.30;;
41466;SDS011;27205;53.690;19.948;2023-06-22T03:24:31;11.30;;;10.50;;
41466;SDS011;27205;53.690;19.948;2023-06-22T03:29:34;10.50;;;9.70;;
41466;SDS011;27205;53.690;19.948;2023-06-22T03:34:38;10.80;;;10.10;;
41466;SDS011;27205;53.690;19.948;2023-06-22T03:44:45;10.90;;;9.90;;
41466;SDS011;27205;53.690;19.948;2023-06-22T03:54:52;9.90;;;9.20;;
41466;SDS011;27205;53.690;19.948;2023-06-22T03:59:56;10.10;;;9.30;;
41466;SDS011;27205;53.690;19.948;2023-06-22T04:05:00;8.80;;;8.10;;
41466;SDS011;27205;53.690;19.948;2023-06-22T04:10:07;8.40;;;7.80;;
41466;SDS011;27205;53.690;19.948;2023-06-22T04:15:14;7.30;;;6.80;;
41466;SDS011;27205;53.690;19.948;2023-06-22T04:20:18;8.90;;;8.10;;
41466;SDS011;27205;53.690;19.948;2023-06-22T04:25:21;7.40;;;6.90;;
41466;SDS011;27205;53.690;19.948;2023-06-22T04:30:25;7.60;;;7.10;;
41466;SDS011;27205;53.690;19.948;2023-06-22T04:35:28;8.50;;;7.90;;
41466;SDS011;27205;53.690;19.948;2023-06-22T04:40:32;7.60;;;6.80;;
41466;SDS011;27205;53.690;19.948;2023-06-22T04:45:36;5.50;;;5.10;;
41466;SDS011;27205;53.690;19.948;2023-06-22T04:50:41;6.90;;;6.40;;
41466;SDS011;27205;53.690;19.948;2023-06-22T04:55:45;7.90;;;7.20;;
41466;SDS011;27205;53.690;19.948;2023-06-22T05:00:49;6.80;;;6.10;;
41466;SDS011;27205;53.690;19.948;2023-06-22T05:05:55;6.40;;;5.90;;
41466;SDS011;27205;53.690;19.948;2023-06-22T05:16:08;8.70;;;6.10;;
41466;SDS011;27205;53.690;19.948;2023-06-22T05:21:11;7.30;;;6.60;;
41466;SDS011;27205;53.690;19.948;2023-06-22T05:26:14;6.40;;;5.80;;
41466;SDS011;27205;53.690;19.948;2023-06-22T05:31:18;5.40;;;5.00;;
41466;SDS011;27205;53.690;19.948;2023-06-22T05:36:25;6.60;;;6.00;;
41466;SDS011;27205;53.690;19.948;2023-06-22T05:41:29;6.40;;;5.80;;
41466;SDS011;27205;53.690;19.948;2023-06-22T05:46:33;6.10;;;5.70;;
41466;SDS011;27205;53.690;19.948;2023-06-22T05:56:39;13.40;;;7.00;;
41466;SDS011;27205;53.690;19.948;2023-06-22T06:06:46;6.90;;;6.30;;
41466;SDS011;27205;53.690;19.948;2023-06-22T06:11:50;7.70;;;7.10;;
41466;SDS011;27205;53.690;19.948;2023-06-22T06:16:53;7.90;;;7.20;;
41466;SDS011;27205;53.690;19.948;2023-06-22T06:27:00;8.50;;;7.70;;
41466;SDS011;27205;53.690;19.948;2023-06-22T06:32:06;9.20;;;8.30;;
41466;SDS011;27205;53.690;19.948;2023-06-22T06:37:11;8.80;;;7.90;;
41466;SDS011;27205;53.690;19.948;2023-06-22T06:42:14;8.80;;;8.10;;
41466;SDS011;27205;53.690;19.948;2023-06-22T06:47:18;8.50;;;7.90;;
41466;SDS011;27205;53.690;19.948;2023-06-22T06:52:21;8.10;;;7.40;;
41466;SDS011;27205;53.690;19.948;2023-06-22T06:57:25;7.50;;;6.90;;
41466;SDS011;27205;53.690;19.948;2023-06-22T07:02:33;7.70;;;7.00;;
41466;SDS011;27205;53.690;19.948;2023-06-22T07:07:36;5.70;;;5.30;;
41466;SDS011;27205;53.690;19.948;2023-06-22T07:12:40;5.50;;;5.10;;
41466;SDS011;27205;53.690;19.948;2023-06-22T07:17:44;6.70;;;6.00;;
41466;SDS011;27205;53.690;19.948;2023-06-22T07:22:47;6.30;;;5.90;;
41466;SDS011;27205;53.690;19.948;2023-06-22T07:33:01;6.60;;;6.00;;
41466;SDS011;27205;53.690;19.948;2023-06-22T07:38:07;6.00;;;5.50;;
41466;SDS011;27205;53.690;19.948;2023-06-22T07:43:12;7.90;;;7.20;;
41466;SDS011;27205;53.690;19.948;2023-06-22T07:53:18;6.20;;;5.80;;
41466;SDS011;27205;53.690;19.948;2023-06-22T08:03:25;8.10;;;7.40;;
41466;SDS011;27205;53.690;19.948;2023-06-22T08:08:28;6.90;;;6.30;;
41466;SDS011;27205;53.690;19.948;2023-06-22T08:18:35;6.80;;;6.20;;
41466;SDS011;27205;53.690;19.948;2023-06-22T08:28:41;8.30;;;7.60;;
41466;SDS011;27205;53.690;19.948;2023-06-22T08:33:45;7.40;;;6.80;;
41466;SDS011;27205;53.690;19.948;2023-06-22T08:38:51;8.30;;;7.60;;
41466;SDS011;27205;53.690;19.948;2023-06-22T08:43:55;7.80;;;7.00;;
41466;SDS011;27205;53.690;19.948;2023-06-22T08:54:02;6.70;;;6.20;;
41466;SDS011;27205;53.690;19.948;2023-06-22T09:04:10;6.80;;;6.20;;
41466;SDS011;27205;53.690;19.948;2023-06-22T09:09:15;5.80;;;5.20;;
41466;SDS011;27205;53.690;19.948;2023-06-22T09:14:19;5.50;;;5.00;;
41466;SDS011;27205;53.690;19.948;2023-06-22T09:19:22;4.20;;;3.90;;
41466;SDS011;27205;53.690;19.948;2023-06-22T09:24:26;3.90;;;3.60;;
41466;SDS011;27205;53.690;19.948;2023-06-22T09:34:36;3.50;;;3.20;;
41466;SDS011;27205;53.690;19.948;2023-06-22T09:39:39;3.70;;;3.40;;
41466;SDS011;27205;53.690;19.948;2023-06-22T09:44:42;4.00;;;3.60;;
41466;SDS011;27205;53.690;19.948;2023-06-22T09:49:46;4.60;;;3.40;;
41466;SDS011;27205;53.690;19.948;2023-06-22T09:54:50;3.80;;;3.30;;
41466;SDS011;27205;53.690;19.948;2023-06-22T09:59:54;3.20;;;2.90;;
41466;SDS011;27205;53.690;19.948;2023-06-22T10:04:57;3.20;;;2.90;;
41466;SDS011;27205;53.690;19.948;2023-06-22T10:10:01;3.70;;;3.20;;
41466;SDS011;27205;53.690;19.948;2023-06-22T10:15:05;2.60;;;2.40;;
41466;SDS011;27205;53.690;19.948;2023-06-22T10:20:09;2.90;;;2.70;;
41466;SDS011;27205;53.690;19.948;2023-06-22T10:25:16;5.30;;;3.30;;
41466;SDS011;27205;53.690;19.948;2023-06-22T10:30:19;2.30;;;2.10;;
41466;SDS011;27205;53.690;19.948;2023-06-22T10:35:22;2.70;;;2.50;;
41466;SDS011;27205;53.690;19.948;2023-06-22T10:40:26;3.20;;;2.90;;
41466;SDS011;27205;53.690;19.948;2023-06-22T10:45:29;2.50;;;2.20;;
41466;SDS011;27205;53.690;19.948;2023-06-22T10:50:33;3.00;;;2.70;;
41466;SDS011;27205;53.690;19.948;2023-06-22T10:55:36;5.70;;;2.60;;
41466;SDS011;27205;53.690;19.948;2023-06-22T11:00:58;2.60;;;2.50;;
41466;SDS011;27205;53.690;19.948;2023-06-22T11:06:02;2.50;;;2.30;;
41466;SDS011;27205;53.690;19.948;2023-06-22T11:11:05;2.80;;;2.30;;
41466;SDS011;27205;53.690;19.948;2023-06-22T11:16:09;3.00;;;2.00;;
41466;SDS011;27205;53.690;19.948;2023-06-22T11:21:13;2.30;;;2.00;;
41466;SDS011;27205;53.690;19.948;2023-06-22T11:26:16;1.80;;;1.70;;
41466;SDS011;27205;53.690;19.948;2023-06-22T11:31:19;2.20;;;1.50;;
41466;SDS011;27205;53.690;19.948;2023-06-22T11:36:28;2.10;;;1.90;;
41466;SDS011;27205;53.690;19.948;2023-06-22T11:41:32;1.40;;;1.40;;
41466;SDS011;27205;53.690;19.948;2023-06-22T11:46:35;2.00;;;1.80;;
41466;SDS011;27205;53.690;19.948;2023-06-22T11:51:40;1.30;;;1.30;;
41466;SDS011;27205;53.690;19.948;2023-06-22T11:56:44;2.30;;;1.80;;
41466;SDS011;27205;53.690;19.948;2023-06-22T12:01:48;1.40;;;1.30;;
41466;SDS011;27205;53.690;19.948;2023-06-22T12:06:53;1.70;;;1.30;;
41466;SDS011;27205;53.690;19.948;2023-06-22T12:11:57;2.00;;;1.60;;
41466;SDS011;27205;53.690;19.948;2023-06-22T12:17:00;2.20;;;1.40;;
41466;SDS011;27205;53.690;19.948;2023-06-22T12:22:04;2.50;;;1.70;;
41466;SDS011;27205;53.690;19.948;2023-06-22T12:27:08;2.90;;;2.30;;
41466;SDS011;27205;53.690;19.948;2023-06-22T12:32:12;1.60;;;1.50;;
41466;SDS011;27205;53.690;19.948;2023-06-22T12:37:16;1.40;;;1.30;;
41466;SDS011;27205;53.690;19.948;2023-06-22T12:42:20;1.70;;;1.40;;
41466;SDS011;27205;53.690;19.948;2023-06-22T12:47:24;1.80;;;1.70;;
41466;SDS011;27205;53.690;19.948;2023-06-22T12:52:29;1.50;;;1.40;;
41466;SDS011;27205;53.690;19.948;2023-06-22T12:57:35;1.60;;;1.40;;
41466;SDS011;27205;53.690;19.948;2023-06-22T13:02:38;1.50;;;1.40;;
41466;SDS011;27205;53.690;19.948;2023-06-22T13:07:42;1.50;;;1.40;;
41466;SDS011;27205;53.690;19.948;2023-06-22T13:12:45;2.20;;;1.50;;
41466;SDS011;27205;53.690;19.948;2023-06-22T13:17:49;2.10;;;1.70;;
41466;SDS011;27205;53.690;19.948;2023-06-22T13:22:52;1.60;;;1.50;;
41466;SDS011;27205;53.690;19.948;2023-06-22T13:27:57;2.00;;;1.50;;
41466;SDS011;27205;53.690;19.948;2023-06-22T13:33:00;1.90;;;1.50;;
41466;SDS011;27205;53.690;19.948;2023-06-22T13:38:04;1.60;;;1.50;;
41466;SDS011;27205;53.690;19.948;2023-06-22T13:43:08;1.50;;;1.40;;
41466;SDS011;27205;53.690;19.948;2023-06-22T13:48:12;1.70;;;1.50;;
41466;SDS011;27205;53.690;19.948;2023-06-22T13:53:15;1.40;;;1.30;;
41466;SDS011;27205;53.690;19.948;2023-06-22T13:58:19;1.40;;;1.30;;
41466;SDS011;27205;53.690;19.948;2023-06-22T14:03:25;2.10;;;1.40;;
41466;SDS011;27205;53.690;19.948;2023-06-22T14:08:29;1.10;;;1.00;;
41466;SDS011;27205;53.690;19.948;2023-06-22T14:13:44;1.20;;;1.10;;
41466;SDS011;27205;53.690;19.948;2023-06-22T14:18:47;1.30;;;1.20;;
41466;SDS011;27205;53.690;19.948;2023-06-22T14:23:51;1.50;;;1.10;;
41466;SDS011;27205;53.690;19.948;2023-06-22T14:28:54;1.50;;;1.40;;
41466;SDS011;27205;53.690;19.948;2023-06-22T14:34:00;2.20;;;1.80;;
41466;SDS011;27205;53.690;19.948;2023-06-22T14:39:06;4.00;;;2.60;;
41466;SDS011;27205;53.690;19.948;2023-06-22T14:44:09;2.80;;;2.70;;
41466;SDS011;27205;53.690;19.948;2023-06-22T14:49:13;3.30;;;3.10;;
41466;SDS011;27205;53.690;19.948;2023-06-22T14:54:16;3.80;;;3.60;;
41466;SDS011;27205;53.690;19.948;2023-06-22T14:59:20;5.00;;;4.80;;
41466;SDS011;27205;53.690;19.948;2023-06-22T15:04:23;5.80;;;5.60;;
41466;SDS011;27205;53.690;19.948;2023-06-22T15:09:27;5.80;;;5.40;;
41466;SDS011;27205;53.690;19.948;2023-06-22T15:14:31;5.80;;;5.50;;
41466;SDS011;27205;53.690;19.948;2023-06-22T15:19:37;6.30;;;6.00;;
41466;SDS011;27205;53.690;19.948;2023-06-22T15:24:41;6.30;;;6.10;;
41466;SDS011;27205;53.690;19.948;2023-06-22T15:29:44;5.60;;;5.40;;
41466;SDS011;27205;53.690;19.948;2023-06-22T15:34:52;5.50;;;5.20;;
41466;SDS011;27205;53.690;19.948;2023-06-22T15:39:56;5.40;;;5.10;;
41466;SDS011;27205;53.690;19.948;2023-06-22T15:45:01;5.70;;;5.40;;
41466;SDS011;27205;53.690;19.948;2023-06-22T15:50:05;5.50;;;5.30;;
41466;SDS011;27205;53.690;19.948;2023-06-22T15:55:09;5.00;;;4.80;;
41466;SDS011;27205;53.690;19.948;2023-06-22T16:00:16;5.10;;;4.70;;
41466;SDS011;27205;53.690;19.948;2023-06-22T16:05:20;5.00;;;4.70;;
41466;SDS011;27205;53.690;19.948;2023-06-22T16:10:24;5.00;;;4.80;;
41466;SDS011;27205;53.690;19.948;2023-06-22T16:15:27;4.60;;;4.40;;
41466;SDS011;27205;53.690;19.948;2023-06-22T16:20:31;4.00;;;3.80;;
41466;SDS011;27205;53.690;19.948;2023-06-22T16:25:35;4.30;;;4.10;;
41466;SDS011;27205;53.690;19.948;2023-06-22T16:30:38;4.00;;;3.80;;
41466;SDS011;27205;53.690;19.948;2023-06-22T16:35:42;3.30;;;3.10;;
41466;SDS011;27205;53.690;19.948;2023-06-22T16:40:46;2.60;;;2.50;;
41466;SDS011;27205;53.690;19.948;2023-06-22T16:45:50;2.50;;;2.30;;
41466;SDS011;27205;53.690;19.948;2023-06-22T16:50:53;2.00;;;1.90;;
41466;SDS011;27205;53.690;19.948;2023-06-22T16:55:57;4.10;;;2.30;;
41466;SDS011;27205;53.690;19.948;2023-06-22T17:01:01;1.90;;;1.80;;
41466;SDS011;27205;53.690;19.948;2023-06-22T17:06:04;2.30;;;1.80;;
41466;SDS011;27205;53.690;19.948;2023-06-22T17:11:10;2.70;;;1.70;;
41466;SDS011;27205;53.690;19.948;2023-06-22T17:16:15;2.20;;;1.60;;
41466;SDS011;27205;53.690;19.948;2023-06-22T17:21:20;1.40;;;1.30;;
41466;SDS011;27205;53.690;19.948;2023-06-22T17:26:27;1.30;;;1.20;;
41466;SDS011;27205;53.690;19.948;2023-06-22T17:31:37;1.20;;;1.20;;
41466;SDS011;27205;53.690;19.948;2023-06-22T17:36:42;1.20;;;1.10;;
41466;SDS011;27205;53.690;19.948;2023-06-22T17:41:55;1.90;;;1.50;;
41466;SDS011;27205;53.690;19.948;2023-06-22T17:46:58;1.00;;;1.00;;
41466;SDS011;27205;53.690;19.948;2023-06-22T17:52:02;1.90;;;1.50;;
41466;SDS011;27205;53.690;19.948;2023-06-22T17:57:15;2.50;;;1.40;;
41466;SDS011;27205;53.690;19.948;2023-06-22T18:02:23;1.10;;;1.00;;
41466;SDS011;27205;53.690;19.948;2023-06-22T18:07:28;1.50;;;1.40;;
41466;SDS011;27205;53.690;19.948;2023-06-22T18:12:33;2.40;;;2.30;;
41466;SDS011;27205;53.690;19.948;2023-06-22T18:17:39;2.80;;;1.40;;
41466;SDS011;27205;53.690;19.948;2023-06-22T18:22:44;2.10;;;1.20;;
41466;SDS011;27205;53.690;19.948;2023-06-22T18:27:49;1.60;;;1.50;;
41466;SDS011;27205;53.690;19.948;2023-06-22T18:32:54;3.10;;;2.40;;
41466;SDS011;27205;53.690;19.948;2023-06-22T18:37:59;2.30;;;2.00;;
41466;SDS011;27205;53.690;19.948;2023-06-22T18:43:03;2.50;;;2.20;;
41466;SDS011;27205;53.690;19.948;2023-06-22T18:48:07;2.40;;;2.20;;
41466;SDS011;27205;53.690;19.948;2023-06-22T18:53:32;3.70;;;2.50;;
41466;SDS011;27205;53.690;19.948;2023-06-22T18:58:34;2.80;;;2.00;;
41466;SDS011;27205;53.690;19.948;2023-06-22T19:03:38;2.10;;;2.00;;
41466;SDS011;27205;53.690;19.948;2023-06-22T19:14:18;3.30;;;2.30;;
41466;SDS011;27205;53.690;19.948;2023-06-22T19:19:24;3.50;;;2.20;;
41466;SDS011;27205;53.690;19.948;2023-06-22T19:24:27;2.00;;;1.90;;
41466;SDS011;27205;53.690;19.948;2023-06-22T19:29:32;3.20;;;2.10;;
41466;SDS011;27205;53.690;19.948;2023-06-22T19:34:41;2.40;;;2.20;;
41466;SDS011;27205;53.690;19.948;2023-06-22T19:39:51;3.10;;;1.90;;
41466;SDS011;27205;53.690;19.948;2023-06-22T19:44:57;3.00;;;2.00;;
41466;SDS011;27205;53.690;19.948;2023-06-22T19:50:01;2.10;;;2.00;;
41466;SDS011;27205;53.690;19.948;2023-06-22T19:55:07;2.70;;;1.90;;
41466;SDS011;27205;53.690;19.948;2023-06-22T20:00:20;2.60;;;2.00;;
41466;SDS011;27205;53.690;19.948;2023-06-22T20:05:25;2.30;;;2.10;;
41466;SDS011;27205;53.690;19.948;2023-06-22T20:15:38;3.30;;;2.10;;
41466;SDS011;27205;53.690;19.948;2023-06-22T20:20:46;2.30;;;2.10;;
41466;SDS011;27205;53.690;19.948;2023-06-22T20:25:50;4.10;;;2.30;;
41466;SDS011;27205;53.690;19.948;2023-06-22T20:31:08;2.90;;;2.60;;
41466;SDS011;27205;53.690;19.948;2023-06-22T20:36:14;3.00;;;2.10;;
41466;SDS011;27205;53.690;19.948;2023-06-22T20:41:19;2.80;;;2.50;;
41466;SDS011;27205;53.690;19.948;2023-06-22T20:46:23;2.60;;;2.30;;
41466;SDS011;27205;53.690;19.948;2023-06-22T20:51:26;3.20;;;2.10;;
41466;SDS011;27205;53.690;19.948;2023-06-22T20:56:30;3.90;;;2.50;;
41466;SDS011;27205;53.690;19.948;2023-06-22T21:01:36;2.80;;;2.40;;
41466;SDS011;27205;53.690;19.948;2023-06-22T21:06:39;8.10;;;2.90;;
41466;SDS011;27205;53.690;19.948;2023-06-22T21:11:43;4.80;;;2.10;;
41466;SDS011;27205;53.690;19.948;2023-06-22T21:16:46;3.20;;;2.10;;
41466;SDS011;27205;53.690;19.948;2023-06-22T21:21:50;3.70;;;1.90;;
41466;SDS011;27205;53.690;19.948;2023-06-22T21:26:54;3.20;;;2.40;;
41466;SDS011;27205;53.690;19.948;2023-06-22T21:37:01;2.70;;;2.30;;
41466;SDS011;27205;53.690;19.948;2023-06-22T21:42:04;2.50;;;2.30;;
41466;SDS011;27205;53.690;19.948;2023-06-22T21:47:08;2.20;;;2.00;;
41466;SDS011;27205;53.690;19.948;2023-06-22T21:52:12;2.20;;;2.10;;
41466;SDS011;27205;53.690;19.948;2023-06-22T21:57:16;2.60;;;2.40;;
41466;SDS011;27205;53.690;19.948;2023-06-22T22:02:19;2.90;;;2.30;;
41466;SDS011;27205;53.690;19.948;2023-06-22T22:12:28;2.70;;;2.50;;
41466;SDS011;27205;53.690;19.948;2023-06-22T22:17:31;2.70;;;2.50;;
41466;SDS011;27205;53.690;19.948;2023-06-22T22:22:36;3.10;;;2.50;;
41466;SDS011;27205;53.690;19.948;2023-06-22T22:27:39;2.70;;;2.40;;
41466;SDS011;27205;53.690;19.948;2023-06-22T22:32:43;3.60;;;3.20;;
41466;SDS011;27205;53.690;19.948;2023-06-22T22:37:47;3.30;;;3.00;;
41466;SDS011;27205;53.690;19.948;2023-06-22T22:42:51;4.30;;;3.30;;
41466;SDS011;27205;53.690;19.948;2023-06-22T22:47:54;3.60;;;2.90;;
41466;SDS011;27205;53.690;19.948;2023-06-22T22:52:58;2.80;;;2.60;;
41466;SDS011;27205;53.690;19.948;2023-06-22T22:58:02;4.10;;;3.30;;
41466;SDS011;27205;53.690;19.948;2023-06-22T23:03:05;3.80;;;3.50;;
41466;SDS011;27205;53.690;19.948;2023-06-22T23:13:13;5.30;;;4.80;;
41466;SDS011;27205;53.690;19.948;2023-06-22T23:18:17;8.40;;;4.90;;
41466;SDS011;27205;53.690;19.948;2023-06-22T23:23:21;5.80;;;5.20;;
41466;SDS011;27205;53.690;19.948;2023-06-22T23:28:25;5.60;;;4.90;;
41466;SDS011;27205;53.690;19.948;2023-06-22T23:33:39;4.70;;;3.70;;
41466;SDS011;27205;53.690;19.948;2023-06-22T23:38:43;4.80;;;3.80;;
41466;SDS011;27205;53.690;19.948;2023-06-22T23:48:50;4.40;;;4.00;;
41466;SDS011;27205;53.690;19.948;2023-06-22T23:53:54;5.10;;;4.60;;
41466;SDS011;27205;53.690;19.948;2023-06-22T23:58:58;4.10;;;3.50;;
